Time;durP1;ratioP1;P1;durP2;ratioP2;P2;SDS_P1;SDS_P2;PMS_P1;PMS_P2;Temp;Humidity;BMP_temperature;BMP_pressure;BME280_temperature;BME280_humidity;BME280_pressure;Samples;Min_cycle;Max_cycle;Signal;HPM_P1;HPM_P2
2022/06/23 00:00:28;;;;;;;8.13;6.43;;;;;;;;;;4991325;28;20210;-74
2022/06/23 00:02:55;;;;;;;11.00;6.68;;;;;;;;;;4989518;28;20617;-74
2022/06/23 00:05:22;;;;;;;12.27;7.70;;;;;;;;;;4987046;28;20195;-74
2022/06/23 00:07:50;;;;;;;7.47;6.45;;;;;;;;;;4988659;28;20256;-74
2022/06/23 00:10:19;;;;;;;10.10;6.75;;;;;;;;;;4971760;28;20231;-76
2022/06/23 00:12:44;;;;;;;12.20;8.20;;;;;;;;;;4975588;28;20254;-74
2022/06/23 00:15:09;;;;;;;10.27;7.18;;;;;;;;;;4974025;28;20184;-74
2022/06/23 00:17:36;;;;;;;10.97;7.10;;;;;;;;;;4990527;28;20618;-74
2022/06/23 00:20:09;;;;;;;8.88;7.07;;;;;;;;;;4988826;28;20426;-74
2022/06/23 00:22:34;;;;;;;10.65;7.70;;;;;;;;;;4990881;28;20210;-74
2022/06/23 00:25:01;;;;;;;11.57;7.72;;;;;;;;;;4988908;28;20184;-74
2022/06/23 00:27:28;;;;;;;12.82;7.15;;;;;;;;;;4986169;28;20245;-74
2022/06/23 00:29:57;;;;;;;10.07;8.02;;;;;;;;;;4991587;28;20692;-75
2022/06/23 00:32:23;;;;;;;7.93;6.63;;;;;;;;;;4973357;28;20210;-74
2022/06/23 00:35:04;;;;;;;8.60;6.70;;;;;;;;;;4992366;28;20249;-74
2022/06/23 00:37:29;;;;;;;12.18;7.80;;;;;;;;;;4991346;28;20695;-74
2022/06/23 00:40:06;;;;;;;14.25;7.90;;;;;;;;;;4989096;28;20183;-74
2022/06/23 00:42:37;;;;;;;12.15;7.32;;;;;;;;;;4982969;28;20677;-74
2022/06/23 00:45:02;;;;;;;11.35;7.22;;;;;;;;;;4989504;28;20208;-74
2022/06/23 00:47:38;;;;;;;10.40;6.50;;;;;;;;;;4990250;28;20685;-74
2022/06/23 00:50:12;;;;;;;9.32;7.22;;;;;;;;;;4990194;28;20435;-74
2022/06/23 00:52:44;;;;;;;7.53;6.20;;;;;;;;;;4990271;28;20217;-74
2022/06/23 00:55:12;;;;;;;10.07;6.88;;;;;;;;;;4989250;28;20666;-74
2022/06/23 00:58:00;;;;;;;12.57;7.85;;;;;;;;;;4990183;28;20231;-74
2022/06/23 01:00:31;;;;;;;13.35;7.45;;;;;;;;;;4991267;28;20210;-74
2022/06/23 01:03:02;;;;;;;11.30;7.70;;;;;;;;;;4990273;28;20258;-74
2022/06/23 01:05:35;;;;;;;11.35;7.25;;;;;;;;;;4990855;28;20182;-74
2022/06/23 01:08:15;;;;;;;10.75;6.55;;;;;;;;;;4989660;28;20233;-74
2022/06/23 01:10:40;;;;;;;8.05;7.10;;;;;;;;;;4991477;28;20602;-74
2022/06/23 01:13:21;;;;;;;10.10;7.37;;;;;;;;;;4991208;28;20200;-74
2022/06/23 01:15:52;;;;;;;10.57;7.25;;;;;;;;;;4973744;28;20429;-74
2022/06/23 01:18:26;;;;;;;9.73;6.85;;;;;;;;;;4986973;28;20650;-74
2022/06/23 01:20:56;;;;;;;11.15;7.07;;;;;;;;;;4989156;28;20199;-73
2022/06/23 01:23:40;;;;;;;10.45;6.85;;;;;;;;;;4989474;28;20285;-75
2022/06/23 01:26:19;;;;;;;10.73;6.97;;;;;;;;;;4990732;28;20170;-75
2022/06/23 01:28:44;;;;;;;10.77;7.57;;;;;;;;;;4989454;28;20185;-74
2022/06/23 01:31:15;;;;;;;14.60;8.77;;;;;;;;;;4990375;28;20204;-74
2022/06/23 01:33:56;;;;;;;12.20;7.50;;;;;;;;;;4989434;28;20179;-75
2022/06/23 01:36:21;;;;;;;12.43;8.65;;;;;;;;;;4983792;28;20192;-74
2022/06/23 01:38:46;;;;;;;9.95;7.55;;;;;;;;;;4988113;28;20689;-75
2022/06/23 01:41:16;;;;;;;10.47;7.40;;;;;;;;;;4964986;28;20267;-74
2022/06/23 01:43:47;;;;;;;9.00;6.95;;;;;;;;;;4990291;28;20441;-74
2022/06/23 01:46:19;;;;;;;10.77;6.97;;;;;;;;;;4989458;28;20222;-74
2022/06/23 01:48:57;;;;;;;12.45;8.50;;;;;;;;;;4983812;28;20194;-74
2022/06/23 01:51:22;;;;;;;11.82;7.45;;;;;;;;;;4983023;28;20216;-74
2022/06/23 01:53:48;;;;;;;12.90;8.18;;;;;;;;;;4974124;28;20705;-74
2022/06/23 01:56:17;;;;;;;9.30;6.82;;;;;;;;;;4993915;28;20258;-74
2022/06/23 01:58:49;;;;;;;12.80;7.72;;;;;;;;;;4992036;28;20213;-74
2022/06/23 02:01:17;;;;;;;11.75;8.00;;;;;;;;;;4991232;28;20646;-74
2022/06/23 02:03:44;;;;;;;11.52;7.47;;;;;;;;;;4993800;28;20179;-74
2022/06/23 02:06:19;;;;;;;15.95;7.88;;;;;;;;;;4994035;28;20214;-74
2022/06/23 02:08:47;;;;;;;8.68;6.70;;;;;;;;;;4994302;28;20187;-74
2022/06/23 02:11:18;;;;;;;13.75;8.38;;;;;;;;;;4992665;28;20753;-74
2022/06/23 02:13:43;;;;;;;11.20;8.25;;;;;;;;;;4994398;28;20574;-74
2022/06/23 02:16:14;;;;;;;13.07;7.75;;;;;;;;;;4993716;28;20186;-74
2022/06/23 02:18:53;;;;;;;15.25;8.05;;;;;;;;;;4994014;28;20654;-74
2022/06/23 02:21:24;;;;;;;26.30;9.27;;;;;;;;;;4994142;28;20214;-74
2022/06/23 02:23:53;;;;;;;9.38;7.97;;;;;;;;;;4992646;28;20183;-74
2022/06/23 02:26:42;;;;;;;15.15;8.20;;;;;;;;;;4993538;28;20192;-75
2022/06/23 02:29:16;;;;;;;11.07;8.48;;;;;;;;;;4983901;28;20207;-75
2022/06/23 02:31:47;;;;;;;11.20;7.88;;;;;;;;;;4980447;28;20209;-75
2022/06/23 02:34:15;;;;;;;12.05;8.43;;;;;;;;;;4976597;28;20175;-75
2022/06/23 02:36:53;;;;;;;11.38;7.05;;;;;;;;;;4993100;28;20226;-75
2022/06/23 02:39:23;;;;;;;9.27;8.13;;;;;;;;;;4994150;28;20673;-74
2022/06/23 02:41:55;;;;;;;9.88;8.38;;;;;;;;;;4973924;28;20220;-74
2022/06/23 02:44:35;;;;;;;11.05;8.50;;;;;;;;;;4993548;28;20198;-74
2022/06/23 02:47:03;;;;;;;9.10;7.72;;;;;;;;;;4988998;28;20233;-74
2022/06/23 02:49:49;;;;;;;11.02;8.05;;;;;;;;;;4987159;28;20645;-74
2022/06/23 02:52:14;;;;;;;11.70;8.27;;;;;;;;;;4992817;28;20266;-74
2022/06/23 02:54:53;;;;;;;10.10;8.05;;;;;;;;;;4976269;28;20318;-74
2022/06/23 02:57:24;;;;;;;18.73;10.15;;;;;;;;;;4993410;28;20175;-74
2022/06/23 02:59:53;;;;;;;10.88;8.48;;;;;;;;;;4981376;28;20187;-74
2022/06/23 03:02:21;;;;;;;11.65;7.80;;;;;;;;;;4974897;28;20215;-75
2022/06/23 03:04:51;;;;;;;13.50;8.43;;;;;;;;;;4991717;28;20183;-75
2022/06/23 03:07:16;;;;;;;12.38;8.35;;;;;;;;;;4993912;28;20179;-74
2022/06/23 03:09:45;;;;;;;10.57;8.50;;;;;;;;;;4991948;28;20238;-74
2022/06/23 03:12:16;;;;;;;14.68;7.95;;;;;;;;;;4992452;28;20555;-75
2022/06/23 03:14:41;;;;;;;9.57;8.05;;;;;;;;;;4993748;28;20237;-75
2022/06/23 03:17:18;;;;;;;13.63;8.88;;;;;;;;;;4990781;28;20610;-75
2022/06/23 03:19:47;;;;;;;13.68;8.43;;;;;;;;;;4990677;28;20266;-75
2022/06/23 03:22:36;;;;;;;12.45;9.05;;;;;;;;;;4975202;28;20207;-75
2022/06/23 03:25:04;;;;;;;9.65;8.13;;;;;;;;;;4980088;28;20215;-74
2022/06/23 03:27:32;;;;;;;14.02;9.20;;;;;;;;;;4990882;28;20662;-74
2022/06/23 03:30:04;;;;;;;13.18;9.52;;;;;;;;;;4992091;28;20554;-74
2022/06/23 03:32:29;;;;;;;10.13;8.27;;;;;;;;;;4992048;28;20704;-74
2022/06/23 03:35:01;;;;;;;15.53;9.23;;;;;;;;;;4992821;28;20191;-74
2022/06/23 03:37:35;;;;;;;10.25;8.63;;;;;;;;;;4991135;28;20508;-75
2022/06/23 03:43:12;;;;;;;12.65;8.23;;;;;;;;;;4974756;28;20282;-75
2022/06/23 03:45:58;;;;;;;13.25;8.73;;;;;;;;;;4990765;28;20191;-74
2022/06/23 03:48:23;;;;;;;11.70;8.80;;;;;;;;;;4985643;28;20206;-75
2022/06/23 03:51:03;;;;;;;14.55;9.20;;;;;;;;;;4989804;28;20176;-74
2022/06/23 03:53:31;;;;;;;10.13;9.07;;;;;;;;;;4972156;28;20195;-76
2022/06/23 03:56:05;;;;;;;10.98;8.63;;;;;;;;;;4990182;28;20872;-75
2022/06/23 03:58:33;;;;;;;10.80;8.98;;;;;;;;;;4970673;28;20195;-75
2022/06/23 04:01:07;;;;;;;11.07;8.30;;;;;;;;;;4990553;28;20252;-74
2022/06/23 04:03:43;;;;;;;12.98;8.88;;;;;;;;;;4991816;28;20176;-75
2022/06/23 04:06:31;;;;;;;11.45;9.50;;;;;;;;;;4988060;28;20183;-75
2022/06/23 04:09:08;;;;;;;12.82;9.18;;;;;;;;;;4979433;28;20200;-75
2022/06/23 04:11:43;;;;;;;9.95;8.48;;;;;;;;;;4986192;28;20561;-75
2022/06/23 04:14:10;;;;;;;12.57;8.95;;;;;;;;;;4988511;28;20674;-75
2022/06/23 04:16:35;;;;;;;11.52;9.45;;;;;;;;;;4973633;28;20280;-74
2022/06/23 04:19:07;;;;;;;11.85;9.57;;;;;;;;;;4990832;28;20561;-74
2022/06/23 04:21:32;;;;;;;13.10;8.45;;;;;;;;;;4974666;28;20214;-75
2022/06/23 04:24:00;;;;;;;12.05;8.82;;;;;;;;;;4987135;28;20175;-74
2022/06/23 04:26:37;;;;;;;11.52;8.57;;;;;;;;;;4991074;28;20175;-75
2022/06/23 04:29:07;;;;;;;13.75;8.98;;;;;;;;;;4979146;28;20171;-75
2022/06/23 04:31:34;;;;;;;10.90;8.75;;;;;;;;;;4974619;28;20689;-74
2022/06/23 04:34:00;;;;;;;11.57;7.93;;;;;;;;;;4985331;28;20768;-74
2022/06/23 04:36:26;;;;;;;10.45;7.57;;;;;;;;;;4991964;28;20270;-73
2022/06/23 04:39:04;;;;;;;9.70;7.55;;;;;;;;;;4988610;28;20223;-74
2022/06/23 04:41:35;;;;;;;9.52;7.63;;;;;;;;;;4992043;28;20219;-75
2022/06/23 04:44:03;;;;;;;9.73;7.18;;;;;;;;;;4991355;28;20207;-75
2022/06/23 04:46:31;;;;;;;11.65;8.48;;;;;;;;;;4991261;28;20176;-74
2022/06/23 04:49:02;;;;;;;13.77;8.05;;;;;;;;;;4991229;28;20267;-73
2022/06/23 04:51:29;;;;;;;13.00;8.23;;;;;;;;;;4992205;28;20230;-76
2022/06/23 04:53:58;;;;;;;9.68;7.13;;;;;;;;;;4992594;28;20194;-74
2022/06/23 04:56:27;;;;;;;15.70;8.07;;;;;;;;;;4983784;28;20179;-74
2022/06/23 04:58:55;;;;;;;11.88;7.20;;;;;;;;;;4991762;28;20184;-75
2022/06/23 05:01:22;;;;;;;10.57;6.88;;;;;;;;;;4993080;28;20200;-74
2022/06/23 05:03:50;;;;;;;9.68;7.07;;;;;;;;;;4992260;28;20176;-74
2022/06/23 05:06:21;;;;;;;11.45;7.38;;;;;;;;;;4991891;28;20175;-74
2022/06/23 05:08:47;;;;;;;13.15;7.65;;;;;;;;;;4991804;28;20183;-74
2022/06/23 05:11:25;;;;;;;11.50;8.00;;;;;;;;;;4992355;28;20283;-74
2022/06/23 05:13:54;;;;;;;9.95;7.00;;;;;;;;;;4988544;28;20182;-74
2022/06/23 05:16:22;;;;;;;11.13;6.82;;;;;;;;;;4992465;28;20274;-74
2022/06/23 05:18:49;;;;;;;10.50;9.23;;;;;;;;;;4991509;28;20347;-75
2022/06/23 05:21:15;;;;;;;11.93;8.25;;;;;;;;;;4990391;28;20211;-74
2022/06/23 05:23:46;;;;;;;10.23;7.80;;;;;;;;;;4992073;28;20179;-75
2022/06/23 05:26:14;;;;;;;12.50;7.88;;;;;;;;;;4989803;28;20720;-74
2022/06/23 05:28:41;;;;;;;9.05;7.72;;;;;;;;;;4990710;28;20184;-74
2022/06/23 05:31:12;;;;;;;10.00;7.03;;;;;;;;;;4973473;28;20206;-75
2022/06/23 05:33:42;;;;;;;9.98;6.57;;;;;;;;;;4991849;28;20178;-74
2022/06/23 05:36:17;;;;;;;11.02;7.97;;;;;;;;;;4990986;28;20262;-74
2022/06/23 05:38:42;;;;;;;10.60;6.93;;;;;;;;;;4990601;28;20539;-74
2022/06/23 05:41:13;;;;;;;7.87;6.93;;;;;;;;;;4989911;28;20230;-75
2022/06/23 05:43:40;;;;;;;8.15;6.80;;;;;;;;;;4990123;28;20418;-74
2022/06/23 05:46:06;;;;;;;10.07;6.65;;;;;;;;;;4990880;28;20196;-74
2022/06/23 05:48:39;;;;;;;7.53;6.47;;;;;;;;;;4991181;28;20167;-74
2022/06/23 05:51:05;;;;;;;9.73;6.88;;;;;;;;;;4990545;28;20256;-75
2022/06/23 05:53:35;;;;;;;10.57;6.87;;;;;;;;;;4990954;28;20199;-75
2022/06/23 05:56:05;;;;;;;9.52;6.72;;;;;;;;;;4990660;28;20458;-74
2022/06/23 05:58:41;;;;;;;11.02;7.15;;;;;;;;;;4990097;28;20210;-74
2022/06/23 06:01:30;;;;;;;10.30;7.13;;;;;;;;;;4990486;28;20775;-74
2022/06/23 06:03:58;;;;;;;8.60;6.80;;;;;;;;;;4963737;28;20187;-74
2022/06/23 06:06:24;;;;;;;9.20;6.93;;;;;;;;;;4983037;28;20228;-75
2022/06/23 06:11:34;;;;;;;10.88;7.38;;;;;;;;;;4991762;28;20207;-75
2022/06/23 06:14:00;;;;;;;12.65;7.30;;;;;;;;;;4987342;28;20184;-74
2022/06/23 06:16:25;;;;;;;13.15;7.13;;;;;;;;;;4973581;28;20226;-74
2022/06/23 06:18:51;;;;;;;11.10;6.68;;;;;;;;;;4990240;28;20250;-74
2022/06/23 06:21:18;;;;;;;13.25;7.45;;;;;;;;;;4971047;28;20586;-75
2022/06/23 06:23:46;;;;;;;8.18;7.05;;;;;;;;;;4973402;28;20261;-74
2022/06/23 06:26:14;;;;;;;7.95;6.93;;;;;;;;;;4987292;28;20580;-74
2022/06/23 06:28:40;;;;;;;7.78;6.03;;;;;;;;;;4986533;28;20227;-74
2022/06/23 06:31:24;;;;;;;7.88;6.70;;;;;;;;;;4987893;28;20227;-74
2022/06/23 06:33:54;;;;;;;11.88;6.85;;;;;;;;;;4985996;28;20258;-74
2022/06/23 06:36:22;;;;;;;8.18;7.30;;;;;;;;;;4990113;28;20657;-73
2022/06/23 06:38:47;;;;;;;8.00;7.20;;;;;;;;;;4992352;28;20187;-73
2022/06/23 06:41:12;;;;;;;6.70;6.10;;;;;;;;;;4993613;28;20211;-74
2022/06/23 06:43:38;;;;;;;11.10;7.73;;;;;;;;;;4995067;28;20424;-74
2022/06/23 06:46:03;;;;;;;8.27;6.90;;;;;;;;;;4977100;28;20476;-74
2022/06/23 06:48:35;;;;;;;9.03;6.70;;;;;;;;;;4994329;28;20532;-74
2022/06/23 06:51:02;;;;;;;8.73;6.72;;;;;;;;;;4994896;28;20488;-74
2022/06/23 06:53:32;;;;;;;8.82;6.80;;;;;;;;;;4970678;28;20556;-74
2022/06/23 06:56:03;;;;;;;7.55;6.05;;;;;;;;;;4993431;28;20215;-74
2022/06/23 06:58:33;;;;;;;7.55;5.97;;;;;;;;;;4994627;28;20227;-73
2022/06/23 07:01:20;;;;;;;10.57;6.28;;;;;;;;;;4976833;28;20199;-73
2022/06/23 07:03:47;;;;;;;10.40;6.55;;;;;;;;;;4993936;28;20176;-74
2022/06/23 07:06:45;;;;;;;10.48;6.65;;;;;;;;;;4994453;28;20176;-74
2022/06/23 07:09:13;;;;;;;10.40;6.43;;;;;;;;;;4959630;28;20657;-74
2022/06/23 07:11:38;;;;;;;9.32;6.25;;;;;;;;;;4994050;28;20669;-73
2022/06/23 07:14:11;;;;;;;8.50;6.17;;;;;;;;;;4993812;28;20266;-73
2022/06/23 07:16:45;;;;;;;7.43;6.00;;;;;;;;;;4993846;28;20488;-73
2022/06/23 07:19:29;;;;;;;10.10;6.40;;;;;;;;;;4975606;28;20184;-73
2022/06/23 07:21:58;;;;;;;9.90;6.70;;;;;;;;;;4993859;28;20213;-73
2022/06/23 07:24:30;;;;;;;7.85;5.60;;;;;;;;;;4991112;28;20172;-74
2022/06/23 07:27:16;;;;;;;7.72;5.57;;;;;;;;;;4992512;28;20187;-73
2022/06/23 07:29:41;;;;;;;10.18;6.05;;;;;;;;;;4991383;28;20199;-73
2022/06/23 07:32:19;;;;;;;7.47;5.83;;;;;;;;;;4993954;28;20262;-74
2022/06/23 07:34:49;;;;;;;7.88;6.05;;;;;;;;;;4993551;28;20781;-73
2022/06/23 07:37:28;;;;;;;11.55;5.88;;;;;;;;;;4994064;28;20671;-72
2022/06/23 07:39:59;;;;;;;6.88;5.88;;;;;;;;;;4993222;28;20191;-73
2022/06/23 07:42:24;;;;;;;7.10;5.68;;;;;;;;;;4988476;28;20203;-74
2022/06/23 07:44:55;;;;;;;9.23;6.22;;;;;;;;;;4976206;28;20198;-75
2022/06/23 07:47:21;;;;;;;7.82;6.35;;;;;;;;;;4992227;28;20184;-74
2022/06/23 07:49:46;;;;;;;6.57;5.60;;;;;;;;;;4991399;28;20176;-73
2022/06/23 07:52:16;;;;;;;10.65;7.35;;;;;;;;;;4990779;28;20219;-74
2022/06/23 07:54:42;;;;;;;7.43;5.57;;;;;;;;;;4976148;28;20176;-74
2022/06/23 07:57:08;;;;;;;8.38;6.75;;;;;;;;;;4992795;28;20719;-73
2022/06/23 07:59:37;;;;;;;9.40;6.40;;;;;;;;;;4991096;28;20190;-74
2022/06/23 08:02:09;;;;;;;6.53;5.75;;;;;;;;;;4991637;28;20211;-74
2022/06/23 08:04:37;;;;;;;6.97;5.80;;;;;;;;;;4975218;28;20546;-74
2022/06/23 08:07:04;;;;;;;8.55;6.45;;;;;;;;;;4992176;28;20176;-74
2022/06/23 08:09:31;;;;;;;9.07;5.88;;;;;;;;;;4975215;28;20326;-74
2022/06/23 08:16:49;;;;;;;7.72;5.50;;;;;;;;;;4991242;28;20202;-74
2022/06/23 08:17:37;;;;;;;7.90;6.05;;;;;;;;;;4991676;28;20207;-73
2022/06/23 08:20:02;;;;;;;8.68;6.05;;;;;;;;;;4992011;28;20179;-73
2022/06/23 08:22:31;;;;;;;9.60;6.40;;;;;;;;;;4974934;28;20207;-73
2022/06/23 08:24:58;;;;;;;6.57;5.75;;;;;;;;;;4973934;28;20179;-73
2022/06/23 08:27:28;;;;;;;6.55;5.95;;;;;;;;;;4988861;28;20225;-73
2022/06/23 08:29:53;;;;;;;8.50;6.25;;;;;;;;;;4974525;28;20180;-74
2022/06/23 08:32:19;;;;;;;7.25;5.80;;;;;;;;;;4991580;28;20232;-74
2022/06/23 08:34:54;;;;;;;10.93;6.80;;;;;;;;;;4990795;28;20198;-74
2022/06/23 08:37:20;;;;;;;8.45;6.97;;;;;;;;;;4973963;28;20262;-74
2022/06/23 08:39:52;;;;;;;10.27;7.13;;;;;;;;;;4991575;28;20219;-74
2022/06/23 08:42:21;;;;;;;9.68;6.85;;;;;;;;;;4973982;28;20301;-73
2022/06/23 08:44:52;;;;;;;11.57;6.75;;;;;;;;;;4992438;28;20499;-73
2022/06/23 08:47:26;;;;;;;9.68;6.13;;;;;;;;;;4991805;28;20195;-73
2022/06/23 08:49:51;;;;;;;11.68;6.57;;;;;;;;;;4991689;28;20200;-74
2022/06/23 08:52:35;;;;;;;10.67;6.10;;;;;;;;;;4991988;28;20742;-74
2022/06/23 08:55:19;;;;;;;9.25;6.85;;;;;;;;;;4989200;28;20176;-74
2022/06/23 08:58:07;;;;;;;9.63;6.65;;;;;;;;;;4991581;28;20207;-74
2022/06/23 09:00:35;;;;;;;7.97;6.45;;;;;;;;;;4964212;28;20689;-73
2022/06/23 09:03:06;;;;;;;16.25;7.07;;;;;;;;;;4992317;28;20236;-73
2022/06/23 09:05:34;;;;;;;9.05;7.05;;;;;;;;;;4992045;28;20207;-74
2022/06/23 09:08:20;;;;;;;9.65;7.45;;;;;;;;;;4991711;28;20238;-74
2022/06/23 09:10:51;;;;;;;10.10;6.78;;;;;;;;;;4991673;28;20206;-73
2022/06/23 09:13:28;;;;;;;12.13;7.53;;;;;;;;;;4991959;28;20179;-74
2022/06/23 09:15:56;;;;;;;12.02;7.70;;;;;;;;;;4980349;28;20190;-73
2022/06/23 09:18:22;;;;;;;10.68;8.10;;;;;;;;;;4990954;28;20270;-74
2022/06/23 09:20:56;;;;;;;11.57;7.77;;;;;;;;;;4991275;28;20342;-74
2022/06/23 09:23:24;;;;;;;10.95;7.78;;;;;;;;;;4991391;28;20178;-74
2022/06/23 09:26:08;;;;;;;9.80;7.93;;;;;;;;;;4990664;28;20175;-73
2022/06/23 09:28:48;;;;;;;9.13;7.47;;;;;;;;;;4988446;28;20183;-74
2022/06/23 09:31:19;;;;;;;10.65;8.05;;;;;;;;;;4990424;28;20222;-74
2022/06/23 09:34:03;;;;;;;11.43;8.77;;;;;;;;;;4989986;28;20206;-74
2022/06/23 09:36:28;;;;;;;9.65;8.25;;;;;;;;;;4990468;28;20265;-73
2022/06/23 09:39:05;;;;;;;12.43;8.37;;;;;;;;;;4991085;28;20267;-74
2022/06/23 09:41:37;;;;;;;12.05;8.25;;;;;;;;;;4988124;28;20206;-73
2022/06/23 09:44:21;;;;;;;11.80;7.82;;;;;;;;;;4989792;28;20676;-73
2022/06/23 09:46:55;;;;;;;12.13;8.73;;;;;;;;;;4985608;28;20171;-73
2022/06/23 09:49:43;;;;;;;12.70;8.13;;;;;;;;;;4989928;28;20170;-73
2022/06/23 09:52:20;;;;;;;11.02;8.95;;;;;;;;;;4989191;28;20222;-74
2022/06/23 09:54:46;;;;;;;13.70;9.57;;;;;;;;;;4990499;28;20261;-73
2022/06/23 09:57:28;;;;;;;14.53;8.57;;;;;;;;;;4989632;28;20322;-73
2022/06/23 09:59:59;;;;;;;9.85;8.85;;;;;;;;;;4985746;28;20186;-73
2022/06/23 10:02:31;;;;;;;10.82;8.48;;;;;;;;;;4989499;28;20285;-73
2022/06/23 10:05:08;;;;;;;12.57;7.60;;;;;;;;;;4989163;28;20580;-73
2022/06/23 10:07:45;;;;;;;12.48;9.23;;;;;;;;;;4989793;28;20183;-73
2022/06/23 10:10:18;;;;;;;10.43;6.88;;;;;;;;;;4989841;28;20183;-72
2022/06/23 10:12:46;;;;;;;8.13;7.35;;;;;;;;;;4990355;28;20568;-73
2022/06/23 10:15:30;;;;;;;11.20;8.05;;;;;;;;;;4992523;28;20175;-73
2022/06/23 10:18:02;;;;;;;7.82;7.13;;;;;;;;;;4989826;28;20690;-73
2022/06/23 10:20:39;;;;;;;12.57;7.88;;;;;;;;;;4989892;28;20175;-73
2022/06/23 10:23:04;;;;;;;9.98;6.82;;;;;;;;;;4994186;28;20205;-73
2022/06/23 10:25:52;;;;;;;13.13;7.43;;;;;;;;;;4992773;28;20238;-73
2022/06/23 10:28:25;;;;;;;9.15;8.13;;;;;;;;;;4950282;28;20469;-73
2022/06/23 10:30:53;;;;;;;9.80;6.85;;;;;;;;;;4992165;28;20520;-73
2022/06/23 10:33:30;;;;;;;13.88;6.18;;;;;;;;;;4991945;28;21330;-73
2022/06/23 10:36:01;;;;;;;10.43;6.80;;;;;;;;;;4974739;28;20653;-73
2022/06/23 10:38:45;;;;;;;9.75;5.57;;;;;;;;;;4993975;28;20182;-72
2022/06/23 10:41:29;;;;;;;11.10;7.13;;;;;;;;;;4990384;28;20723;-73
2022/06/23 10:44:03;;;;;;;7.78;5.78;;;;;;;;;;4992668;28;20220;-73
2022/06/23 10:46:40;;;;;;;7.10;5.65;;;;;;;;;;4975043;28;20194;-73
2022/06/23 10:49:08;;;;;;;10.05;5.65;;;;;;;;;;4993211;28;20583;-73
2022/06/23 10:51:33;;;;;;;9.13;5.70;;;;;;;;;;4993814;28;20218;-73
2022/06/23 10:54:02;;;;;;;13.20;5.73;;;;;;;;;;4993643;28;20226;-73
2022/06/23 10:56:49;;;;;;;8.32;5.15;;;;;;;;;;4990911;28;20409;-73
2022/06/23 10:59:14;;;;;;;7.97;5.82;;;;;;;;;;4992124;28;20562;-72
2022/06/23 11:01:39;;;;;;;12.83;7.20;;;;;;;;;;4992940;28;20282;-73
2022/06/23 11:04:23;;;;;;;13.07;5.83;;;;;;;;;;4993546;28;20175;-73
2022/06/23 11:07:02;;;;;;;9.15;6.18;;;;;;;;;;4989154;28;20405;-73
2022/06/23 11:09:47;;;;;;;11.82;6.53;;;;;;;;;;4991644;28;20661;-72
2022/06/23 11:12:33;;;;;;;12.82;7.22;;;;;;;;;;4993976;28;20239;-72
2022/06/23 11:15:13;;;;;;;8.98;5.65;;;;;;;;;;4990646;28;20254;-73
2022/06/23 11:17:38;;;;;;;12.32;6.43;;;;;;;;;;4992272;28;20221;-72
2022/06/23 11:20:10;;;;;;;11.95;6.10;;;;;;;;;;4992923;28;20226;-73
2022/06/23 11:22:38;;;;;;;10.20;6.53;;;;;;;;;;4993053;28;20215;-73
2022/06/23 11:25:12;;;;;;;7.35;6.10;;;;;;;;;;4991331;28;20194;-73
2022/06/23 11:27:44;;;;;;;8.32;5.20;;;;;;;;;;4989837;28;20230;-73
2022/06/23 11:30:25;;;;;;;11.40;5.40;;;;;;;;;;4991726;28;20214;-72
2022/06/23 11:32:59;;;;;;;9.45;4.57;;;;;;;;;;4991849;28;20199;-73
2022/06/23 11:35:33;;;;;;;6.93;3.90;;;;;;;;;;4992140;28;20179;-72
2022/06/23 11:37:58;;;;;;;9.52;4.40;;;;;;;;;;4991077;28;20217;-72
2022/06/23 11:40:46;;;;;;;11.13;4.53;;;;;;;;;;4991761;28;20206;-73
2022/06/23 11:43:14;;;;;;;6.57;3.80;;;;;;;;;;4955113;28;20237;-73
2022/06/23 11:45:50;;;;;;;9.13;4.13;;;;;;;;;;4992169;28;20182;-73
2022/06/23 11:48:34;;;;;;;7.25;4.72;;;;;;;;;;4991975;28;20182;-73
2022/06/23 11:50:59;;;;;;;8.82;3.80;;;;;;;;;;4991542;28;20206;-72
2022/06/23 11:53:24;;;;;;;8.67;4.63;;;;;;;;;;5039551;23;20236;-71
2022/06/23 11:55:56;;;;;;;9.57;3.70;;;;;;;;;;5027039;28;20426;-71
2022/06/23 11:58:36;;;;;;;8.45;3.88;;;;;;;;;;5034722;28;20181;-71
2022/06/23 12:01:06;;;;;;;6.90;3.35;;;;;;;;;;5031029;28;20205;-71
2022/06/23 12:03:51;;;;;;;6.80;3.47;;;;;;;;;;5024319;28;20170;-71
2022/06/23 12:06:33;;;;;;;6.72;3.60;;;;;;;;;;5014861;28;20636;-72
2022/06/23 12:08:58;;;;;;;9.35;3.42;;;;;;;;;;5015175;28;20178;-72
2022/06/23 12:11:24;;;;;;;6.70;3.37;;;;;;;;;;5017231;28;20204;-72
2022/06/23 12:13:50;;;;;;;8.15;4.25;;;;;;;;;;5017245;28;20269;-71
2022/06/23 12:16:15;;;;;;;6.95;3.33;;;;;;;;;;5021235;28;20181;-71
2022/06/23 12:18:45;;;;;;;10.07;4.13;;;;;;;;;;5017880;28;20192;-72
2022/06/23 12:21:18;;;;;;;6.95;3.25;;;;;;;;;;5013057;28;20236;-72
2022/06/23 12:23:49;;;;;;;10.00;3.55;;;;;;;;;;5024330;28;20178;-71
2022/06/23 12:26:19;;;;;;;6.45;3.30;;;;;;;;;;5019625;28;20174;-71
2022/06/23 12:28:50;;;;;;;11.23;3.90;;;;;;;;;;5005037;28;20183;-71
2022/06/23 12:31:26;;;;;;;6.63;3.22;;;;;;;;;;5019125;28;20217;-71
2022/06/23 12:34:03;;;;;;;7.82;3.45;;;;;;;;;;5015522;28;20276;-71
2022/06/23 12:36:28;;;;;;;7.35;3.70;;;;;;;;;;4994384;28;20189;-72
2022/06/23 12:38:56;;;;;;;4.07;2.70;;;;;;;;;;5009596;28;20182;-71
2022/06/23 12:41:24;;;;;;;5.32;3.20;;;;;;;;;;5015659;28;20214;-71
2022/06/23 12:43:49;;;;;;;5.35;3.15;;;;;;;;;;5022479;28;20182;-71
2022/06/23 12:46:14;;;;;;;6.33;3.07;;;;;;;;;;5014830;28;20289;-72
2022/06/23 12:48:49;;;;;;;7.37;3.20;;;;;;;;;;5023027;28;20406;-71
2022/06/23 12:51:21;;;;;;;14.10;3.70;;;;;;;;;;5012882;28;20679;-76
2022/06/23 12:54:05;;;;;;;8.45;3.35;;;;;;;;;;4992102;28;20213;-72
2022/06/23 12:56:45;;;;;;;6.65;3.53;;;;;;;;;;5012816;28;20249;-72
2022/06/23 12:59:29;;;;;;;8.70;4.07;;;;;;;;;;5014558;28;20787;-72
2022/06/23 13:01:57;;;;;;;7.10;3.20;;;;;;;;;;5012022;28;20220;-71
2022/06/23 13:04:28;;;;;;;9.00;3.70;;;;;;;;;;5013535;28;20178;-71
2022/06/23 13:06:56;;;;;;;7.28;3.28;;;;;;;;;;5012043;28;20179;-71
2022/06/23 13:09:25;;;;;;;9.02;3.42;;;;;;;;;;4993897;28;20396;-71
2022/06/23 13:11:55;;;;;;;8.10;3.08;;;;;;;;;;5011898;28;20199;-71
2022/06/23 13:14:40;;;;;;;5.55;3.20;;;;;;;;;;5011531;28;20170;-72
2022/06/23 13:17:08;;;;;;;4.85;3.10;;;;;;;;;;4993489;28;20186;-71
2022/06/23 13:19:42;;;;;;;8.73;3.70;;;;;;;;;;5026516;28;20169;-71
2022/06/23 13:22:09;;;;;;;6.57;2.90;;;;;;;;;;5016861;28;20272;-71
2022/06/23 13:24:35;;;;;;;11.85;4.25;;;;;;;;;;5021644;28;20183;-71
2022/06/23 13:27:12;;;;;;;7.30;3.63;;;;;;;;;;5013401;28;20648;-71
2022/06/23 13:30:03;;;;;;;9.85;4.22;;;;;;;;;;5014059;28;20189;-71
2022/06/23 13:32:35;;;;;;;6.82;3.22;;;;;;;;;;5009505;28;20228;-71
2022/06/23 13:35:06;;;;;;;6.53;2.70;;;;;;;;;;4993047;28;20634;-71
2022/06/23 13:37:54;;;;;;;8.55;3.33;;;;;;;;;;5019230;28;20173;-71
2022/06/23 13:40:34;;;;;;;6.80;3.75;;;;;;;;;;5023346;28;20264;-71
2022/06/23 13:43:02;;;;;;;6.47;3.47;;;;;;;;;;4995078;28;20208;-71
2022/06/23 13:45:31;;;;;;;7.90;3.58;;;;;;;;;;5000275;28;20178;-71
2022/06/23 13:48:04;;;;;;;10.38;4.07;;;;;;;;;;5012483;28;20273;-72
2022/06/23 13:50:38;;;;;;;8.70;3.08;;;;;;;;;;5015371;28;20185;-70
2022/06/23 13:53:08;;;;;;;8.68;3.13;;;;;;;;;;5022627;28;20212;-71
2022/06/23 13:55:33;;;;;;;9.68;3.90;;;;;;;;;;5015585;28;20177;-71
2022/06/23 13:58:03;;;;;;;6.30;3.53;;;;;;;;;;5015807;28;20178;-72
2022/06/23 14:00:42;;;;;;;5.15;2.90;;;;;;;;;;4997121;28;20636;-72
2022/06/23 14:03:13;;;;;;;8.07;3.40;;;;;;;;;;5019268;28;20198;-71
2022/06/23 14:05:56;;;;;;;6.95;3.20;;;;;;;;;;5023632;28;20260;-71
2022/06/23 14:08:21;;;;;;;5.43;2.75;;;;;;;;;;5016192;28;20174;-72
2022/06/23 14:11:07;;;;;;;6.10;2.80;;;;;;;;;;5012064;28;20340;-71
2022/06/23 14:13:49;;;;;;;6.47;2.97;;;;;;;;;;5009430;28;20277;-71
2022/06/23 14:16:17;;;;;;;5.18;2.78;;;;;;;;;;5013530;28;20210;-71
2022/06/23 14:18:53;;;;;;;6.72;3.03;;;;;;;;;;5001839;28;20274;-71
2022/06/23 14:21:27;;;;;;;4.88;2.60;;;;;;;;;;5021740;28;20671;-71
2022/06/23 14:23:55;;;;;;;6.38;3.30;;;;;;;;;;5023287;28;20205;-71
2022/06/23 14:26:24;;;;;;;6.18;2.60;;;;;;;;;;5010756;28;20181;-71
2022/06/23 14:28:52;;;;;;;6.93;2.63;;;;;;;;;;5017245;28;20723;-71
2022/06/23 14:31:23;;;;;;;12.45;3.47;;;;;;;;;;5003263;28;20226;-71
2022/06/23 14:34:14;;;;;;;5.07;2.50;;;;;;;;;;4993573;28;20205;-71
2022/06/23 14:36:43;;;;;;;5.78;2.83;;;;;;;;;;5013224;28;20660;-71
2022/06/23 14:39:12;;;;;;;6.22;2.90;;;;;;;;;;5025507;28;20184;-71
2022/06/23 14:41:37;;;;;;;6.55;2.80;;;;;;;;;;5011439;28;20214;-72
2022/06/23 14:44:19;;;;;;;6.30;2.90;;;;;;;;;;5014105;28;20556;-72
2022/06/23 14:46:44;;;;;;;3.55;2.20;;;;;;;;;;5015555;28;20257;-71
2022/06/23 14:49:19;;;;;;;3.83;2.30;;;;;;;;;;5013683;28;20178;-71
2022/06/23 14:51:53;;;;;;;3.53;2.10;;;;;;;;;;5010071;28;20477;-71
2022/06/23 14:54:26;;;;;;;8.07;2.47;;;;;;;;;;5010710;28;20237;-71
2022/06/23 14:57:18;;;;;;;7.15;2.63;;;;;;;;;;5010869;28;20602;-72
2022/06/23 14:59:43;;;;;;;7.50;2.42;;;;;;;;;;5011239;28;20757;-72
2022/06/23 15:02:12;;;;;;;6.90;3.10;;;;;;;;;;5013870;28;20277;-72
2022/06/23 15:04:47;;;;;;;3.90;2.53;;;;;;;;;;5014191;28;20178;-73
2022/06/23 15:07:35;;;;;;;4.90;2.30;;;;;;;;;;5014248;28;20174;-73
2022/06/23 15:10:15;;;;;;;4.80;2.70;;;;;;;;;;5013975;28;20186;-72
2022/06/23 15:12:47;;;;;;;6.43;2.30;;;;;;;;;;5013532;28;20241;-72